createdAt,value
2018-07-25T00:00:40.087Z,99.90
2018-07-25T00:03:12.011Z,99.90
2018-07-25T00:05:43.906Z,99.90
2018-07-25T00:08:16.155Z,99.90
2018-07-25T00:10:50.196Z,99.90
2018-07-25T00:13:22.063Z,99.90
2018-07-25T00:15:53.937Z,99.90
2018-07-25T00:18:26.193Z,99.90
2018-07-25T00:20:58.283Z,99.90
2018-07-25T00:23:30.155Z,99.90
2018-07-25T00:26:03.406Z,99.90
2018-07-25T00:28:35.278Z,99.90
2018-07-25T00:31:06.880Z,99.90
2018-07-25T00:33:38.874Z,99.90
2018-07-25T00:36:10.857Z,99.90
2018-07-25T00:38:42.750Z,99.90
2018-07-25T00:41:15.004Z,99.90
2018-07-25T00:43:46.919Z,99.90
2018-07-25T00:46:18.809Z,99.90
2018-07-25T00:48:51.101Z,99.90
2018-07-25T00:51:23.053Z,99.90
2018-07-25T00:53:55.063Z,99.90
2018-07-25T00:56:27.031Z,99.90
2018-07-25T00:58:58.854Z,99.90
2018-07-25T01:01:30.607Z,99.90
2018-07-25T01:04:03.094Z,99.90
2018-07-25T01:06:35.345Z,99.90
2018-07-25T01:09:08.769Z,99.90
2018-07-25T01:11:40.422Z,99.90
2018-07-25T01:14:12.611Z,99.90
2018-07-25T01:16:44.446Z,99.90
2018-07-25T01:19:16.581Z,99.90
2018-07-25T01:21:48.478Z,99.90
2018-07-25T01:24:20.593Z,99.90
2018-07-25T01:26:52.788Z,99.90
2018-07-25T01:29:25.038Z,99.90
2018-07-25T01:31:57.048Z,99.90
2018-07-25T01:34:29.177Z,99.90
2018-07-25T01:37:01.078Z,99.90
2018-07-25T01:39:33.130Z,99.90
2018-07-25T01:42:04.914Z,99.90
2018-07-25T01:44:36.722Z,99.90
2018-07-25T01:47:08.555Z,99.90
2018-07-25T01:49:40.666Z,99.90
2018-07-25T01:54:43.686Z,99.90
2018-07-25T01:57:15.337Z,99.90
2018-07-25T01:59:47.454Z,99.90
2018-07-25T02:02:19.309Z,99.90
2018-07-25T02:04:51.255Z,99.90
2018-07-25T02:07:23.170Z,99.90
2018-07-25T02:09:55.551Z,99.90
2018-07-25T02:12:27.445Z,99.90
2018-07-25T02:14:59.701Z,99.90
2018-07-25T02:17:31.555Z,99.90
2018-07-25T02:22:34.294Z,99.90
2018-07-25T02:25:06.286Z,99.90
2018-07-25T02:27:38.957Z,99.90
2018-07-25T02:30:10.874Z,99.90
2018-07-25T02:32:42.647Z,99.90
2018-07-25T02:37:45.395Z,99.90
2018-07-25T02:40:17.610Z,99.90
2018-07-25T02:42:49.686Z,99.90
2018-07-25T02:45:21.551Z,99.90
2018-07-25T02:47:53.307Z,99.90
2018-07-25T02:50:25.406Z,99.90
2018-07-25T02:52:57.415Z,99.90
2018-07-25T02:58:00.506Z,99.90
2018-07-25T03:00:32.628Z,99.90
2018-07-25T03:03:04.459Z,99.90
2018-07-25T03:05:36.630Z,99.90
2018-07-25T03:08:09.248Z,99.90
2018-07-25T03:10:46.396Z,99.90
2018-07-25T03:13:18.107Z,99.90
2018-07-25T03:15:55.938Z,99.90
2018-07-25T03:18:27.688Z,99.90
2018-07-25T03:21:01.219Z,99.90
2018-07-25T03:23:34.174Z,99.90
2018-07-25T03:26:06.119Z,99.90
2018-07-25T03:28:38.436Z,99.90
2018-07-25T03:33:40.850Z,99.90
2018-07-25T03:36:12.806Z,99.90
2018-07-25T03:38:44.631Z,99.90
2018-07-25T03:41:16.463Z,99.90
2018-07-25T03:43:48.121Z,99.90
2018-07-25T03:46:20.434Z,99.90
2018-07-25T03:48:52.119Z,99.90
2018-07-25T03:51:24.049Z,99.90
2018-07-25T03:53:55.914Z,99.90
2018-07-25T03:56:27.933Z,99.90
2018-07-25T03:58:59.702Z,99.90
2018-07-25T04:01:31.882Z,99.90
2018-07-25T04:04:03.762Z,99.90
2018-07-25T04:06:36.047Z,99.90
2018-07-25T04:09:09.872Z,99.90
2018-07-25T04:11:41.950Z,99.90
2018-07-25T04:14:13.725Z,99.90
2018-07-25T04:16:45.942Z,99.90
2018-07-25T04:19:17.907Z,99.90
2018-07-25T04:21:50.349Z,99.90
2018-07-25T04:24:22.093Z,99.90
2018-07-25T04:26:54.558Z,99.90
2018-07-25T04:29:27.239Z,99.90
2018-07-25T04:31:59.388Z,99.90
2018-07-25T04:34:31.150Z,99.90
2018-07-25T04:37:03.187Z,99.90
2018-07-25T04:42:06.103Z,99.90
2018-07-25T04:47:09.339Z,99.90
2018-07-25T04:49:41.177Z,99.90
2018-07-25T04:54:44.752Z,99.90
2018-07-25T04:57:17.492Z,99.90
2018-07-25T05:02:20.473Z,99.90
2018-07-25T05:04:52.399Z,99.90
2018-07-25T05:07:26.105Z,99.90
2018-07-25T05:09:58.014Z,99.90
2018-07-25T05:12:30.066Z,99.90
2018-07-25T05:15:01.959Z,99.90
2018-07-25T05:17:34.003Z,99.90
2018-07-25T05:20:05.530Z,99.90
2018-07-25T05:22:37.393Z,99.90
2018-07-25T05:27:40.246Z,99.90
2018-07-25T05:30:12.647Z,99.90
2018-07-25T05:32:44.527Z,99.90
2018-07-25T05:35:16.417Z,97.70
2018-07-25T05:37:49.245Z,98.00
2018-07-25T05:40:20.856Z,98.10
2018-07-25T05:42:52.979Z,98.70
2018-07-25T05:45:24.553Z,99.20
2018-07-25T05:52:59.353Z,99.90
2018-07-25T05:55:31.165Z,99.90
2018-07-25T05:58:03.279Z,97.60
2018-07-25T06:00:35.206Z,95.20
2018-07-25T06:03:07.646Z,91.10
2018-07-25T06:05:39.454Z,84.70
2018-07-25T06:08:11.727Z,83.40
2018-07-25T06:10:43.587Z,82.80
2018-07-25T06:13:15.658Z,79.50
2018-07-25T06:15:47.545Z,80.50
2018-07-25T06:20:50.399Z,76.80
2018-07-25T06:23:22.744Z,79.40
2018-07-25T06:25:54.564Z,81.30
2018-07-25T06:30:59.652Z,83.30
2018-07-25T06:36:02.761Z,82.90
2018-07-25T06:43:37.741Z,85.10
2018-07-25T06:46:09.568Z,84.20
2018-07-25T06:48:41.515Z,87.10
2018-07-25T06:51:13.447Z,87.10
2018-07-25T06:53:45.165Z,86.90
2018-07-25T06:56:16.852Z,89.60
2018-07-25T06:58:48.974Z,89.60
2018-07-25T07:01:21.186Z,85.00
2018-07-25T07:03:53.711Z,83.10
2018-07-25T07:06:25.497Z,80.30
2018-07-25T07:08:57.571Z,78.60
2018-07-25T07:11:29.402Z,77.20
2018-07-25T07:14:01.458Z,77.60
2018-07-25T07:16:33.246Z,76.10
2018-07-25T07:19:05.142Z,76.90
2018-07-25T07:21:36.549Z,80.80
2018-07-25T07:24:08.506Z,81.70
2018-07-25T07:26:40.508Z,84.80
2018-07-25T07:29:12.546Z,84.80
2018-07-25T07:31:44.951Z,88.30
2018-07-25T07:39:18.981Z,89.10
2018-07-25T07:41:50.597Z,90.00
2018-07-25T07:44:22.617Z,90.50
2018-07-25T07:46:54.154Z,91.20
2018-07-25T07:49:26.157Z,91.40
2018-07-25T07:51:57.766Z,92.40
2018-07-25T07:54:29.663Z,92.50
2018-07-25T07:57:01.688Z,92.20
2018-07-25T07:59:33.203Z,93.00
2018-07-25T08:02:04.861Z,94.20
2018-07-25T08:04:37.808Z,94.70
2018-07-25T08:07:09.458Z,94.10
2018-07-25T08:09:41.414Z,95.60
2018-07-25T08:12:13.123Z,96.70
2018-07-25T08:14:44.911Z,96.50
2018-07-25T08:17:16.295Z,99.20
2018-07-25T08:19:48.937Z,99.50
2018-07-25T08:22:20.319Z,99.20
2018-07-25T08:24:52.134Z,99.90
2018-07-25T08:29:54.766Z,99.90
2018-07-25T08:39:59.502Z,99.90
2018-07-25T08:42:31.371Z,99.90
2018-07-25T08:45:03.691Z,99.90
2018-07-25T08:47:35.626Z,99.90
2018-07-25T08:50:09.215Z,99.90
2018-07-25T08:57:42.935Z,99.90
2018-07-25T09:00:14.975Z,99.90
2018-07-25T09:02:46.618Z,99.90
2018-07-25T09:05:18.979Z,99.90
2018-07-25T09:07:50.730Z,99.90
2018-07-25T09:10:22.485Z,99.90
2018-07-25T09:12:54.022Z,99.90
2018-07-25T09:15:25.780Z,99.90
2018-07-25T09:20:28.587Z,99.90
2018-07-25T09:23:00.263Z,99.90
2018-07-25T09:25:32.324Z,99.90
2018-07-25T09:28:04.334Z,99.90
2018-07-25T09:30:35.902Z,99.90
2018-07-25T09:33:07.515Z,99.90
2018-07-25T09:35:39.475Z,99.90
2018-07-25T09:38:11.058Z,99.90
2018-07-25T09:40:42.684Z,99.90
2018-07-25T09:43:14.437Z,99.90
2018-07-25T09:45:46.392Z,99.90
2018-07-25T09:48:18.110Z,99.90
2018-07-25T09:50:49.790Z,99.90
2018-07-25T09:53:21.412Z,99.90
2018-07-25T09:55:53.475Z,99.90
2018-07-25T09:58:25.215Z,99.90
2018-07-25T10:00:57.786Z,99.90
2018-07-25T10:03:29.466Z,99.90
2018-07-25T10:06:02.640Z,99.90
2018-07-25T10:08:34.178Z,99.90
2018-07-25T10:13:36.682Z,99.90
2018-07-25T10:16:09.006Z,99.90
2018-07-25T10:18:40.888Z,99.90
2018-07-25T10:26:14.962Z,99.90
2018-07-25T10:33:48.340Z,99.90
2018-07-25T10:38:51.186Z,99.90
2018-07-25T10:46:24.780Z,99.90
2018-07-25T10:48:56.338Z,99.90
2018-07-25T10:53:59.099Z,99.90
2018-07-25T10:56:30.881Z,99.90
2018-07-25T10:59:02.660Z,99.90
2018-07-25T11:01:34.987Z,99.90
2018-07-25T11:04:06.775Z,99.90
2018-07-25T11:06:40.889Z,99.90
2018-07-25T11:09:12.543Z,99.90
2018-07-25T11:11:44.494Z,99.90
2018-07-25T11:16:47.287Z,99.90
2018-07-25T11:19:19.115Z,98.90
2018-07-25T11:21:50.876Z,98.90
2018-07-25T11:24:23.016Z,98.60
2018-07-25T11:29:26.380Z,99.00
2018-07-25T11:31:58.386Z,99.30
2018-07-25T11:34:30.151Z,99.90
2018-07-25T11:37:01.991Z,99.90
2018-07-25T11:39:33.982Z,99.90
2018-07-25T11:44:36.863Z,99.90
2018-07-25T11:47:08.845Z,99.90
2018-07-25T11:49:40.560Z,99.90
2018-07-25T11:52:12.380Z,98.40
2018-07-25T11:54:44.208Z,99.90
2018-07-25T11:57:16.315Z,99.90
2018-07-25T11:59:48.178Z,99.90
2018-07-25T12:02:19.995Z,98.60
2018-07-25T12:04:51.542Z,99.70
2018-07-25T12:07:24.069Z,97.00
2018-07-25T12:09:56.325Z,95.30
2018-07-25T12:17:30.490Z,97.30
2018-07-25T12:22:33.276Z,98.00
2018-07-25T12:25:04.935Z,98.20
2018-07-25T12:27:37.015Z,99.80
2018-07-25T12:30:09.535Z,99.90
2018-07-25T12:32:41.311Z,99.90
2018-07-25T12:35:13.085Z,99.90
2018-07-25T12:37:45.155Z,99.90
2018-07-25T12:40:16.943Z,99.90
2018-07-25T12:42:48.724Z,99.90
2018-07-25T12:45:20.409Z,99.90
2018-07-25T12:47:52.515Z,99.90
2018-07-25T12:50:24.303Z,99.90
2018-07-25T12:52:56.167Z,99.90
2018-07-25T12:57:59.098Z,99.90
2018-07-25T13:00:30.773Z,99.90
2018-07-25T13:03:02.587Z,99.90
2018-07-25T13:05:34.265Z,99.90
2018-07-25T13:08:07.343Z,99.90
2018-07-25T13:10:39.147Z,99.90
2018-07-25T13:13:11.289Z,99.90
2018-07-25T13:15:43.147Z,99.90
2018-07-25T13:18:15.278Z,99.90
2018-07-25T13:25:49.199Z,99.90
2018-07-25T13:28:21.148Z,99.90
2018-07-25T13:30:52.870Z,99.90
2018-07-25T13:33:25.366Z,99.90
2018-07-25T13:35:57.155Z,99.90
2018-07-25T13:38:29.623Z,99.90
2018-07-25T13:41:01.377Z,99.90
2018-07-25T13:43:33.370Z,99.90
2018-07-25T13:46:05.383Z,99.90
2018-07-25T13:48:37.683Z,99.90
2018-07-25T13:51:09.563Z,99.90
2018-07-25T13:53:42.061Z,99.90
2018-07-25T13:56:13.842Z,99.90
2018-07-25T13:58:45.841Z,99.90
2018-07-25T14:01:17.930Z,99.90
2018-07-25T14:06:20.958Z,99.90
2018-07-25T14:08:53.876Z,99.90
2018-07-25T14:11:26.000Z,99.90
2018-07-25T14:13:58.235Z,99.90
2018-07-25T14:16:29.684Z,99.90
2018-07-25T14:19:01.845Z,99.90
2018-07-25T14:21:33.635Z,99.90
2018-07-25T14:24:05.949Z,99.90
2018-07-25T14:26:37.799Z,99.90
2018-07-25T14:29:09.976Z,99.90
2018-07-25T14:31:41.679Z,99.90
2018-07-25T14:34:13.910Z,99.90
2018-07-25T14:36:45.635Z,99.90
2018-07-25T14:39:18.244Z,99.90
2018-07-25T14:41:49.962Z,99.90
2018-07-25T14:44:21.854Z,99.90
2018-07-25T14:46:53.557Z,99.90
2018-07-25T14:49:25.643Z,99.90
2018-07-25T14:51:57.935Z,99.90
2018-07-25T14:54:30.178Z,99.90
2018-07-25T14:57:01.727Z,99.90
2018-07-25T14:59:33.470Z,99.90
2018-07-25T15:04:35.998Z,99.90
2018-07-25T15:07:07.830Z,99.90
2018-07-25T15:09:41.542Z,99.90
2018-07-25T15:12:13.717Z,99.90
2018-07-25T15:14:45.782Z,99.90
2018-07-25T15:17:17.622Z,99.90
2018-07-25T15:19:49.167Z,99.90
2018-07-25T15:22:20.762Z,99.90
2018-07-25T15:24:52.574Z,99.90
2018-07-25T15:27:24.203Z,99.90
2018-07-25T15:29:56.110Z,99.90
2018-07-25T15:34:59.201Z,99.90
2018-07-25T15:37:30.859Z,99.90
2018-07-25T15:40:04.351Z,99.90
2018-07-25T15:42:35.939Z,99.90
2018-07-25T15:47:38.655Z,99.90
2018-07-25T15:50:10.730Z,99.90
2018-07-25T15:52:42.510Z,99.90
2018-07-25T15:55:14.374Z,99.90
2018-07-25T15:57:46.083Z,99.90
2018-07-25T16:00:18.051Z,99.90
2018-07-25T16:05:20.622Z,99.90
2018-07-25T16:07:52.302Z,99.90
2018-07-25T16:10:24.692Z,99.90
2018-07-25T16:12:56.382Z,99.90
2018-07-25T16:15:28.195Z,99.90
2018-07-25T16:17:59.766Z,99.90
2018-07-25T16:20:32.161Z,99.90
2018-07-25T16:23:03.803Z,99.90
2018-07-25T16:25:35.744Z,99.90
2018-07-25T16:30:38.539Z,99.90
2018-07-25T16:33:10.355Z,99.90
2018-07-25T16:35:42.534Z,99.90
2018-07-25T16:38:14.427Z,99.90
2018-07-25T16:40:46.299Z,99.90
2018-07-25T16:43:18.090Z,99.90
2018-07-25T16:45:49.903Z,99.90
2018-07-25T16:50:54.322Z,99.90
2018-07-25T16:53:26.987Z,99.90
2018-07-25T16:55:58.905Z,99.90
2018-07-25T16:58:30.674Z,99.90
2018-07-25T17:01:02.498Z,99.90
2018-07-25T17:03:34.285Z,99.90
2018-07-25T17:06:06.235Z,99.90
2018-07-25T17:08:37.923Z,99.90
2018-07-25T17:11:10.210Z,99.90
2018-07-25T17:13:42.149Z,99.90
2018-07-25T17:16:14.883Z,99.90
2018-07-25T17:18:46.499Z,99.90
2018-07-25T17:21:18.519Z,99.90
2018-07-25T17:24:05.129Z,99.90
2018-07-25T17:26:41.258Z,99.90
2018-07-25T17:29:13.143Z,99.90
2018-07-25T17:31:44.973Z,99.90
2018-07-25T17:34:17.457Z,99.90
2018-07-25T17:36:49.384Z,99.90
2018-07-25T17:39:20.743Z,99.90
2018-07-25T17:41:53.983Z,99.90
2018-07-25T17:44:25.501Z,99.90
2018-07-25T17:46:58.994Z,99.90
2018-07-25T17:49:30.673Z,99.90
2018-07-25T17:57:06.052Z,99.90
2018-07-25T17:59:43.477Z,99.90
2018-07-25T18:04:47.594Z,99.90
2018-07-25T18:07:19.370Z,99.90
2018-07-25T18:09:53.994Z,99.90
2018-07-25T18:15:00.163Z,99.90
2018-07-25T18:17:31.807Z,99.90
2018-07-25T18:20:04.548Z,99.90
2018-07-25T18:22:39.611Z,99.90
2018-07-25T18:25:11.823Z,99.90
2018-07-25T18:27:44.995Z,99.90
2018-07-25T18:30:20.762Z,99.90
2018-07-25T18:32:53.096Z,99.90
2018-07-25T18:35:24.677Z,99.90
2018-07-25T18:37:56.783Z,99.90
2018-07-25T18:40:32.028Z,99.90
2018-07-25T18:43:05.344Z,99.90
2018-07-25T18:45:40.113Z,99.90
2018-07-25T18:48:14.678Z,99.90
2018-07-25T18:50:46.592Z,99.90
2018-07-25T18:55:53.285Z,99.90
2018-07-25T18:58:27.436Z,99.90
2018-07-25T19:01:00.450Z,99.90
2018-07-25T19:03:32.879Z,99.90
2018-07-25T19:06:04.395Z,99.90
2018-07-25T19:08:36.352Z,99.90
2018-07-25T19:11:08.246Z,99.90
2018-07-25T19:13:46.327Z,99.90
2018-07-25T19:16:18.087Z,99.90
2018-07-25T19:18:49.920Z,99.90
2018-07-25T19:21:21.591Z,99.90
2018-07-25T19:23:53.190Z,99.90
2018-07-25T19:26:24.813Z,99.90
2018-07-25T19:28:56.762Z,99.90
2018-07-25T19:31:28.477Z,99.90
2018-07-25T19:34:00.234Z,99.90
2018-07-25T19:36:31.754Z,99.90
2018-07-25T19:39:03.999Z,99.90
2018-07-25T19:41:35.586Z,99.90
2018-07-25T19:44:07.690Z,99.90
2018-07-25T19:46:39.482Z,99.90
2018-07-25T19:49:11.406Z,99.90
2018-07-25T19:51:42.931Z,99.90
2018-07-25T19:54:14.604Z,99.90
2018-07-25T19:56:46.606Z,99.90
2018-07-25T19:59:18.598Z,99.90
2018-07-25T20:04:22.054Z,99.90
2018-07-25T20:06:54.241Z,99.90
2018-07-25T20:09:26.489Z,99.90
2018-07-25T20:11:58.082Z,99.90
2018-07-25T20:14:36.311Z,99.90
2018-07-25T20:17:07.828Z,99.90
2018-07-25T20:19:40.127Z,99.90
2018-07-25T20:22:11.843Z,99.90
2018-07-25T20:24:43.639Z,99.90
2018-07-25T20:27:15.255Z,99.90
2018-07-25T20:29:47.027Z,99.90
2018-07-25T20:32:18.769Z,99.90
2018-07-25T20:34:50.362Z,99.90
2018-07-25T20:37:22.399Z,99.90
2018-07-25T20:42:25.286Z,99.90
2018-07-25T20:44:56.874Z,99.90
2018-07-25T20:47:28.492Z,99.90
2018-07-25T20:52:31.108Z,99.90
2018-07-25T20:55:03.175Z,99.90
2018-07-25T20:57:35.095Z,99.90
2018-07-25T21:00:07.332Z,99.90
2018-07-25T21:02:39.110Z,99.90
2018-07-25T21:05:11.054Z,99.90
2018-07-25T21:07:42.610Z,99.90
2018-07-25T21:10:14.246Z,99.90
2018-07-25T21:12:46.006Z,99.90
2018-07-25T21:15:18.611Z,99.90
2018-07-25T21:17:50.179Z,99.90
2018-07-25T21:22:52.685Z,99.90
2018-07-25T21:25:24.554Z,99.90
2018-07-25T21:27:55.982Z,99.90
2018-07-25T21:30:27.946Z,99.90
2018-07-25T21:32:59.611Z,99.90
2018-07-25T21:35:31.632Z,99.90
2018-07-25T21:38:03.110Z,99.90
2018-07-25T21:40:35.118Z,99.90
2018-07-25T21:43:06.842Z,99.90
2018-07-25T21:45:38.790Z,99.90
2018-07-25T21:48:10.593Z,99.90
2018-07-25T21:50:42.424Z,99.90
2018-07-25T21:53:14.023Z,99.90
2018-07-25T21:55:45.935Z,99.90
2018-07-25T21:58:17.558Z,99.90
2018-07-25T22:00:58.391Z,99.90
2018-07-25T22:06:00.833Z,99.90
2018-07-25T22:08:32.531Z,99.90
2018-07-25T22:13:35.182Z,99.90
2018-07-25T22:16:08.475Z,99.90
2018-07-25T22:18:39.924Z,99.90
2018-07-25T22:21:11.597Z,99.90
2018-07-25T22:23:43.306Z,99.90
2018-07-25T22:26:15.079Z,99.90
2018-07-25T22:28:46.490Z,99.90
2018-07-25T22:31:18.499Z,99.90
2018-07-25T22:33:50.103Z,99.90
2018-07-25T22:36:21.994Z,99.90
2018-07-25T22:41:25.158Z,99.90
2018-07-25T22:43:56.895Z,99.90
2018-07-25T22:46:28.601Z,99.90
2018-07-25T22:49:00.206Z,99.90
2018-07-25T22:51:32.362Z,99.90
2018-07-25T22:54:03.894Z,99.90
2018-07-25T23:01:37.273Z,99.90
2018-07-25T23:06:39.854Z,99.90
2018-07-25T23:09:12.454Z,99.90
2018-07-25T23:11:44.109Z,99.90
2018-07-25T23:14:15.758Z,99.90
2018-07-25T23:19:18.954Z,99.90
2018-07-25T23:21:50.818Z,99.90
2018-07-25T23:24:22.517Z,99.90
2018-07-25T23:26:54.110Z,99.90
2018-07-25T23:29:25.697Z,99.90
2018-07-25T23:31:57.880Z,99.90
2018-07-25T23:34:29.656Z,99.90
2018-07-25T23:37:01.286Z,99.90
2018-07-25T23:39:32.821Z,99.90
2018-07-25T23:42:04.759Z,99.90
2018-07-25T23:44:36.518Z,99.90
2018-07-25T23:47:08.197Z,99.90
2018-07-25T23:49:40.310Z,99.90
2018-07-25T23:52:12.050Z,99.90
2018-07-25T23:54:43.690Z,99.90
2018-07-25T23:57:16.099Z,99.90
2018-07-25T23:59:47.794Z,99.90
